Main page
METAR-TAF:

METAR-TAF

Airports :

Jask, Iran

latitude: 26-38N, longitude: 057-46E, elevation: 3 m

Current weather observation

The report was made 1 hour and 3 minutes ago, at 05:00 UTC
Wind 10 kt from the East/Southeast
Temperature 30°C
Humidity 89%
Pressure 1003 hPa
Visibility: 3000 m
mist

METAR: OIZJ 250500Z 12010KT 3000 BR NSC 30/28 Q1003

Time: 10:33 (06:03 UTC)


TAF: missing

Weather observations and forecasts of more than 4000 airports (METAR and TAF reports).

The available stations are represented by yellow and red dots on the map.

Hover mouse over dot to see the name of the station.

Then click to see weather observations and forecasts.

To change the map : click on the green buttons with a black cross to zoom in, on the green button with a dash to zoom out, or on the green arrows for adjacent maps.


METAR-TAF: